createdAt,value
2024-03-16T00:01:42.504Z,23.55
2024-03-16T00:03:44.574Z,21.52
2024-03-16T00:05:47.778Z,22.20
2024-03-16T00:07:50.750Z,22.60
2024-03-16T00:09:52.873Z,23.77
2024-03-16T00:11:55.894Z,26.10
2024-03-16T00:13:58.700Z,25.30
2024-03-16T00:16:01.844Z,25.23
2024-03-16T00:18:04.508Z,24.05
2024-03-16T00:22:14.101Z,25.15
2024-03-16T00:24:16.237Z,25.33
2024-03-16T00:26:18.831Z,25.50
2024-03-16T00:28:20.904Z,24.77
2024-03-16T00:30:24.582Z,27.15
2024-03-16T00:32:27.139Z,26.95
2024-03-16T00:34:29.408Z,27.85
2024-03-16T00:36:34.493Z,27.40
2024-03-16T00:38:36.769Z,26.80
2024-03-16T00:40:38.952Z,26.85
2024-03-16T00:42:41.117Z,28.85
2024-03-16T00:44:43.243Z,27.02
2024-03-16T00:46:45.681Z,27.10
2024-03-16T00:48:47.971Z,28.70
2024-03-16T00:50:50.076Z,27.27
2024-03-16T00:52:52.306Z,27.73
2024-03-16T00:54:54.496Z,26.95
2024-03-16T00:56:57.287Z,27.48
2024-03-16T01:01:01.579Z,26.77
2024-03-16T01:03:04.708Z,27.42
2024-03-16T01:05:07.139Z,26.63
2024-03-16T01:07:09.215Z,26.42
2024-03-16T01:09:11.281Z,25.38
2024-03-16T01:11:13.381Z,27.15
2024-03-16T01:13:15.479Z,27.25
2024-03-16T01:15:18.099Z,26.88
2024-03-16T01:17:22.346Z,26.38
2024-03-16T01:19:26.371Z,28.13
2024-03-16T01:21:28.499Z,25.45
2024-03-16T01:23:31.520Z,25.20
2024-03-16T01:25:33.689Z,24.45
2024-03-16T01:27:35.809Z,25.83
2024-03-16T01:29:37.969Z,27.38
2024-03-16T01:31:40.100Z,27.90
2024-03-16T01:33:42.241Z,27.10
2024-03-16T01:35:44.388Z,24.70
2024-03-16T01:37:46.515Z,26.98
2024-03-16T01:39:51.101Z,24.65
2024-03-16T01:41:53.382Z,24.88
2024-03-16T01:43:55.514Z,24.77
2024-03-16T01:45:57.599Z,24.83
2024-03-16T01:48:04.910Z,24.48
2024-03-16T01:50:08.629Z,26.73
2024-03-16T01:52:10.736Z,22.80
2024-03-16T01:54:12.904Z,26.48
2024-03-16T01:56:15.173Z,24.17
2024-03-16T01:58:17.299Z,23.98
2024-03-16T02:00:19.879Z,24.08
2024-03-16T02:02:38.750Z,23.83
2024-03-16T02:04:40.862Z,24.33
2024-03-16T02:06:49.981Z,23.95
2024-03-16T02:08:55.137Z,26.15
2024-03-16T02:10:57.489Z,25.40
2024-03-16T02:12:59.857Z,25.98
2024-03-16T02:15:02.118Z,27.00
2024-03-16T02:17:05.858Z,24.60
2024-03-16T02:19:08.651Z,24.33
2024-03-16T02:21:11.374Z,26.90
2024-03-16T02:25:16.132Z,25.50
2024-03-16T02:27:18.421Z,24.90
2024-03-16T02:29:20.528Z,24.23
2024-03-16T02:31:22.721Z,22.63
2024-03-16T02:33:24.926Z,22.80
2024-03-16T02:35:28.109Z,23.23
2024-03-16T02:37:30.209Z,24.38
2024-03-16T02:39:33.235Z,25.50
2024-03-16T02:41:35.371Z,23.33
2024-03-16T02:43:37.433Z,25.17
2024-03-16T02:45:39.513Z,26.17
2024-03-16T02:47:41.669Z,26.15
2024-03-16T02:49:43.882Z,26.77
2024-03-16T02:51:46.059Z,23.33
2024-03-16T02:53:48.211Z,24.60
2024-03-16T02:55:50.309Z,22.95
2024-03-16T02:57:52.431Z,24.63
2024-03-16T02:59:54.611Z,25.98
2024-03-16T03:01:58.683Z,26.25
2024-03-16T03:04:01.011Z,27.23
2024-03-16T03:06:04.940Z,26.63
2024-03-16T03:08:07.132Z,24.45
2024-03-16T03:10:10.122Z,24.50
2024-03-16T03:12:12.478Z,23.80
2024-03-16T03:14:18.279Z,23.80
2024-03-16T03:16:20.549Z,24.15
2024-03-16T03:18:25.635Z,24.15
2024-03-16T03:20:27.839Z,26.25
2024-03-16T03:22:29.875Z,24.33
2024-03-16T03:24:32.590Z,27.50
2024-03-16T03:28:37.630Z,25.92
2024-03-16T03:30:39.783Z,26.15
2024-03-16T03:32:41.871Z,24.25
2024-03-16T03:34:44.064Z,22.35
2024-03-16T03:36:46.361Z,24.92
2024-03-16T03:38:49.238Z,22.80
2024-03-16T03:40:51.390Z,22.88
2024-03-16T03:42:57.091Z,22.10
2024-03-16T03:45:12.054Z,22.63
2024-03-16T03:47:14.212Z,21.02
2024-03-16T03:49:27.456Z,22.05
2024-03-16T03:51:29.823Z,20.90
2024-03-16T03:53:32.170Z,23.40
2024-03-16T03:55:34.305Z,22.65
2024-03-16T03:57:36.450Z,22.83
2024-03-16T03:59:38.578Z,21.30
2024-03-16T04:01:40.719Z,22.25
2024-03-16T04:03:42.814Z,21.67
2024-03-16T04:05:45.006Z,21.75
2024-03-16T04:07:47.339Z,20.67
2024-03-16T04:09:50.420Z,20.23
2024-03-16T04:11:52.599Z,21.23
2024-03-16T04:13:54.674Z,19.83
2024-03-16T04:15:56.807Z,19.35
2024-03-16T04:17:58.929Z,20.48
2024-03-16T04:20:01.052Z,19.48
2024-03-16T04:22:03.193Z,20.92
2024-03-16T04:24:05.630Z,18.73
2024-03-16T04:26:07.968Z,19.17
2024-03-16T04:28:11.105Z,18.75
2024-03-16T04:30:13.895Z,19.00
2024-03-16T04:32:15.983Z,17.52
2024-03-16T04:34:18.204Z,18.63
2024-03-16T04:36:20.309Z,18.40
2024-03-16T04:38:22.699Z,17.08
2024-03-16T04:40:24.824Z,18.25
2024-03-16T04:42:26.947Z,16.63
2024-03-16T04:44:29.560Z,18.35
2024-03-16T04:46:34.621Z,17.88
2024-03-16T04:48:36.836Z,19.05
2024-03-16T04:50:39.009Z,17.13
2024-03-16T04:52:41.042Z,17.33
2024-03-16T04:54:43.116Z,15.00
2024-03-16T04:56:45.253Z,17.35
2024-03-16T04:58:47.345Z,15.73
2024-03-16T05:00:49.467Z,16.55
2024-03-16T05:02:51.689Z,16.50
2024-03-16T05:04:55.938Z,15.27
2024-03-16T05:06:59.000Z,16.17
2024-03-16T05:09:06.485Z,15.60
2024-03-16T05:11:08.845Z,16.35
2024-03-16T05:13:11.141Z,16.05
2024-03-16T05:15:13.378Z,16.23
2024-03-16T05:17:15.481Z,15.50
2024-03-16T05:19:17.684Z,15.25
2024-03-16T05:21:20.451Z,14.85
2024-03-16T05:25:24.496Z,13.77
2024-03-16T05:27:26.573Z,13.35
2024-03-16T05:29:28.594Z,14.90
2024-03-16T05:31:33.296Z,13.32
2024-03-16T05:33:35.718Z,13.23
2024-03-16T05:35:41.931Z,14.27
2024-03-16T05:37:44.104Z,13.23
2024-03-16T05:39:46.291Z,12.18
2024-03-16T05:41:48.377Z,13.48
2024-03-16T05:43:52.620Z,12.50
2024-03-16T05:45:54.855Z,13.60
2024-03-16T05:47:57.074Z,13.10
2024-03-16T05:49:59.190Z,11.80
2024-03-16T05:52:01.350Z,12.95
2024-03-16T05:54:05.602Z,13.05
2024-03-16T05:56:07.708Z,13.25
2024-03-16T05:58:10.156Z,12.80
2024-03-16T06:00:16.045Z,13.55
2024-03-16T06:02:18.181Z,12.50
2024-03-16T06:04:21.268Z,12.65
2024-03-16T06:06:23.324Z,12.93
2024-03-16T06:08:25.510Z,14.25
2024-03-16T06:10:27.697Z,12.63
2024-03-16T06:12:32.336Z,12.65
2024-03-16T06:14:35.151Z,11.30
2024-03-16T06:18:48.278Z,12.77
2024-03-16T06:20:50.595Z,11.80
2024-03-16T06:22:52.782Z,13.27
2024-03-16T06:24:54.949Z,12.02
2024-03-16T06:27:02.046Z,11.05
2024-03-16T06:29:09.884Z,11.85
2024-03-16T06:31:12.561Z,11.25
2024-03-16T06:35:24.778Z,11.15
2024-03-16T06:37:26.922Z,11.00
2024-03-16T06:39:29.115Z,10.88
2024-03-16T06:41:31.255Z,10.88
2024-03-16T06:43:33.823Z,10.90
2024-03-16T06:45:36.052Z,10.77
2024-03-16T06:47:38.181Z,10.20
2024-03-16T06:49:40.310Z,10.05
2024-03-16T06:51:42.484Z,10.82
2024-03-16T06:53:44.574Z,9.80
2024-03-16T06:55:51.654Z,9.05
2024-03-16T06:57:53.729Z,9.75
2024-03-16T06:59:55.915Z,8.55
2024-03-16T07:01:58.061Z,9.27
2024-03-16T07:04:00.315Z,8.52
2024-03-16T07:06:03.544Z,8.68
2024-03-16T07:08:07.035Z,8.63
2024-03-16T07:10:09.672Z,8.63
2024-03-16T07:14:14.309Z,8.40
2024-03-16T07:18:19.426Z,6.72
2024-03-16T07:20:21.521Z,7.43
2024-03-16T07:22:23.631Z,7.60
2024-03-16T07:24:25.702Z,7.47
2024-03-16T07:26:29.467Z,7.68
2024-03-16T07:28:34.125Z,7.78
2024-03-16T07:30:37.936Z,7.30
2024-03-16T07:32:40.181Z,8.07
2024-03-16T07:34:42.375Z,7.75
2024-03-16T07:36:44.511Z,8.07
2024-03-16T07:38:46.645Z,7.65
2024-03-16T07:40:48.865Z,7.72
2024-03-16T07:42:51.807Z,7.30
2024-03-16T07:44:53.868Z,7.65
2024-03-16T07:46:55.928Z,7.18
2024-03-16T07:48:58.126Z,7.78
2024-03-16T07:51:05.494Z,7.13
2024-03-16T07:53:07.581Z,6.68
2024-03-16T07:55:09.988Z,7.35
2024-03-16T07:57:12.168Z,6.97
2024-03-16T07:59:14.844Z,7.00
2024-03-16T08:03:23.838Z,7.00
2024-03-16T08:05:25.967Z,7.38
2024-03-16T08:07:28.024Z,7.43
2024-03-16T08:09:31.792Z,7.35
2024-03-16T08:11:34.894Z,6.90
2024-03-16T08:13:37.741Z,6.85
2024-03-16T08:15:40.753Z,6.88
2024-03-16T08:17:42.968Z,6.72
2024-03-16T08:19:45.112Z,6.85
2024-03-16T08:21:50.247Z,6.65
2024-03-16T08:23:55.516Z,6.57
2024-03-16T08:25:57.822Z,6.07
2024-03-16T08:28:00.137Z,5.35
2024-03-16T08:30:02.328Z,5.63
2024-03-16T08:32:06.172Z,5.55
2024-03-16T08:34:10.482Z,5.35
2024-03-16T08:36:12.633Z,5.15
2024-03-16T08:38:14.704Z,5.47
2024-03-16T08:40:17.490Z,5.28
2024-03-16T08:42:19.725Z,5.13
2024-03-16T08:44:21.865Z,5.57
2024-03-16T08:46:27.394Z,5.30
2024-03-16T08:48:30.068Z,5.68
2024-03-16T08:50:32.311Z,5.47
2024-03-16T08:52:37.983Z,4.88
2024-03-16T08:54:40.887Z,5.70
2024-03-16T08:56:43.020Z,5.32
2024-03-16T08:58:47.524Z,5.60
2024-03-16T09:00:50.149Z,5.03
2024-03-16T09:02:53.518Z,5.15
2024-03-16T09:04:58.648Z,4.95
2024-03-16T09:07:00.787Z,4.72
2024-03-16T09:09:04.463Z,5.03
2024-03-16T09:11:06.722Z,4.70
2024-03-16T09:13:09.166Z,5.50
2024-03-16T09:15:12.573Z,4.68
2024-03-16T09:17:14.747Z,4.75
2024-03-16T09:19:17.399Z,5.00
2024-03-16T09:23:21.619Z,4.82
2024-03-16T09:25:24.036Z,4.88
2024-03-16T09:27:26.225Z,4.65
2024-03-16T09:29:28.320Z,4.38
2024-03-16T09:31:30.405Z,5.30
2024-03-16T09:33:33.735Z,5.07
2024-03-16T09:35:35.808Z,5.18
2024-03-16T09:37:38.272Z,4.68
2024-03-16T09:39:40.459Z,4.60
2024-03-16T09:41:42.692Z,4.82
